Time;durP1;ratioP1;P1;durP2;ratioP2;P2;SDS_P1;SDS_P2;PMS_P1;PMS_P2;Temp;Humidity;BMP_temperature;BMP_pressure;BME280_temperature;BME280_humidity;BME280_pressure;Samples;Min_cycle;Max_cycle;Signal;HPM_P1;HPM_P2
2022/12/31 00:01:18;;;;;;;66.70;44.87;;;;;;;5.36;93.00;100626.50;5051351;28;20196;-55
2022/12/31 00:03:46;;;;;;;60.90;43.37;;;;;;;5.34;92.55;100617.91;5052008;28;20575;-55
2022/12/31 00:06:16;;;;;;;60.50;42.33;;;;;;;5.35;92.46;100614.59;5051673;28;20316;-55
2022/12/31 00:08:43;;;;;;;61.37;43.37;;;;;;;5.34;92.59;100623.00;5052701;28;20280;-55
2022/12/31 00:11:10;;;;;;;60.43;40.73;;;;;;;5.20;92.29;100618.81;5055091;28;20189;-55
2022/12/31 00:13:38;;;;;;;66.90;42.90;;;;;;;5.32;92.86;100637.34;5066323;28;20586;-56
2022/12/31 00:16:09;;;;;;;69.60;48.63;;;;;;;5.27;92.72;100631.09;5075305;28;20247;-55
2022/12/31 00:18:37;;;;;;;78.17;50.13;;;;;;;5.25;93.37;100613.97;5074826;28;20198;-55
2022/12/31 00:21:09;;;;;;;67.33;47.03;;;;;;;5.35;92.87;100634.97;5070030;28;20220;-56
2022/12/31 00:23:36;;;;;;;75.00;52.05;;;;;;;5.37;92.88;100645.22;5068690;28;20449;-55
2022/12/31 00:26:05;;;;;;;69.20;47.93;;;;;;;5.41;92.07;100634.44;5075146;28;20322;-55
2022/12/31 00:28:32;;;;;;;71.63;48.80;;;;;;;5.40;91.93;100627.56;5075104;28;20616;-55
2022/12/31 00:31:05;;;;;;;69.63;45.93;;;;;;;5.43;92.70;100637.03;5069214;28;20193;-56
2022/12/31 00:33:31;;;;;;;71.50;48.63;;;;;;;5.42;92.80;100645.47;5074612;28;20194;-55
2022/12/31 00:36:10;;;;;;;65.93;45.40;;;;;;;5.42;92.19;100643.81;5074636;28;20194;-55
2022/12/31 00:38:37;;;;;;;65.00;43.83;;;;;;;5.40;92.32;100662.34;5074654;28;20806;-55
2022/12/31 00:41:05;;;;;;;65.77;44.67;;;;;;;5.36;92.43;100654.53;5074501;28;20218;-55
2022/12/31 00:43:32;;;;;;;66.10;45.33;;;;;;;4.96;92.62;100627.66;5074737;28;20540;-55
2022/12/31 00:45:58;;;;;;;55.40;40.23;;;;;;;5.13;92.84;100642.22;5074563;28;20680;-56
2022/12/31 00:48:25;;;;;;;62.37;44.70;;;;;;;5.20;93.10;100657.03;5074691;28;20210;-55
2022/12/31 00:50:53;;;;;;;58.43;42.07;;;;;;;5.13;92.58;100660.03;5074552;28;20198;-56
2022/12/31 00:53:21;;;;;;;60.97;42.00;;;;;;;4.96;92.47;100653.13;5074566;28;20195;-55
2022/12/31 00:55:48;;;;;;;57.97;41.57;;;;;;;5.02;92.99;100655.13;5074588;28;20189;-56
2022/12/31 00:58:15;;;;;;;61.63;41.50;;;;;;;5.00;93.97;100662.66;5074534;28;20251;-55
2022/12/31 01:00:42;;;;;;;60.00;43.47;;;;;;;5.06;94.02;100657.94;5074248;28;20220;-56
2022/12/31 01:03:09;;;;;;;62.27;41.90;;;;;;;4.96;93.60;100634.41;5074740;28;20189;-55
2022/12/31 01:05:36;;;;;;;60.50;42.27;;;;;;;5.17;93.27;100659.41;5064684;28;20255;-56
2022/12/31 01:08:04;;;;;;;55.93;40.17;;;;;;;5.16;92.40;100665.31;5067341;28;20197;-55
2022/12/31 01:13:16;;;;;;;58.40;40.43;;;;;;;5.21;93.35;100655.38;5074410;28;20188;-54
2022/12/31 01:15:43;;;;;;;62.00;41.50;;;;;;;5.21;92.18;100674.09;5074135;28;20200;-55
2022/12/31 01:18:10;;;;;;;55.85;42.13;;;;;;;5.20;92.59;100674.88;5073358;28;20445;-55
2022/12/31 01:20:38;;;;;;;50.00;36.50;;;;;;;5.25;92.04;100672.56;5073401;28;20217;-55
2022/12/31 01:23:05;;;;;;;51.37;36.33;;;;;;;5.21;91.14;100666.44;5073806;28;20190;-55
2022/12/31 01:25:36;;;;;;;54.63;36.77;;;;;;;5.18;91.35;100657.75;5073841;28;20190;-55
2022/12/31 01:28:03;;;;;;;50.53;34.37;;;;;;;5.24;91.46;100660.63;5074152;28;20189;-55
2022/12/31 01:30:30;;;;;;;52.63;35.80;;;;;;;5.16;91.17;100655.13;5073818;28;20193;-55
2022/12/31 01:32:57;;;;;;;52.10;34.93;;;;;;;5.18;91.31;100657.75;5073597;28;20235;-55
2022/12/31 01:35:23;;;;;;;53.90;34.70;;;;;;;5.11;91.39;100650.56;5074076;28;20197;-55
2022/12/31 01:37:50;;;;;;;51.07;34.23;;;;;;;4.94;91.18;100629.25;5074174;28;20186;-55
2022/12/31 01:40:17;;;;;;;44.30;32.97;;;;;;;5.05;91.35;100650.22;5073317;28;20213;-55
2022/12/31 01:42:53;;;;;;;49.07;34.00;;;;;;;5.09;91.02;100657.22;5073538;28;20193;-55
2022/12/31 01:45:19;;;;;;;54.47;34.57;;;;;;;5.08;90.90;100648.69;5073438;28;20204;-55
2022/12/31 01:47:49;;;;;;;49.90;35.20;;;;;;;4.85;90.89;100608.34;5073479;28;20199;-56
2022/12/31 01:50:20;;;;;;;46.93;34.27;;;;;;;4.83;91.10;100609.94;5073245;28;20193;-56
2022/12/31 01:52:50;;;;;;;48.20;34.67;;;;;;;5.01;91.31;100655.91;5058610;28;20203;-56
2022/12/31 01:55:21;;;;;;;52.37;34.13;;;;;;;5.03;91.13;100664.50;5053174;28;20198;-56
2022/12/31 01:57:53;;;;;;;44.83;31.90;;;;;;;5.04;90.97;100661.19;5053424;28;20203;-56
2022/12/31 02:00:20;;;;;;;49.80;34.13;;;;;;;4.99;91.52;100668.56;5053006;28;20228;-56
2022/12/31 02:02:47;;;;;;;52.20;34.13;;;;;;;4.94;91.54;100672.53;5066859;28;20197;-56
2022/12/31 02:05:22;;;;;;;47.07;31.23;;;;;;;4.93;91.21;100664.78;5068890;28;20216;-57
2022/12/31 02:07:50;;;;;;;44.73;29.47;;;;;;;4.89;91.07;100665.41;5068002;28;20206;-56
2022/12/31 02:10:17;;;;;;;40.03;29.03;;;;;;;4.83;91.23;100668.50;5064872;28;20200;-56
2022/12/31 02:12:44;;;;;;;45.33;32.40;;;;;;;4.81;90.76;100654.78;5052611;28;20443;-57
2022/12/31 02:15:12;;;;;;;37.37;28.73;;;;;;;4.73;91.11;100663.63;5053399;28;20320;-56
2022/12/31 02:17:48;;;;;;;39.30;28.20;;;;;;;4.79;91.21;100653.81;5067231;28;20238;-56
2022/12/31 02:20:41;;;;;;;38.63;27.37;;;;;;;4.75;90.29;100657.84;5073047;28;20309;-56
2022/12/31 02:23:50;;;;;;;33.07;25.30;;;;;;;4.72;90.32;100655.13;5072840;28;20192;-57
2022/12/31 02:26:42;;;;;;;35.47;23.90;;;;;;;4.68;89.90;100659.94;5064896;28;20680;-56
2022/12/31 02:29:47;;;;;;;36.00;25.47;;;;;;;4.57;91.34;100661.88;5042576;28;20613;-56
2022/12/31 02:32:21;;;;;;;34.70;25.60;;;;;;;4.54;90.58;100650.63;5043600;28;20621;-56
2022/12/31 02:34:54;;;;;;;32.93;24.83;;;;;;;4.49;90.89;100637.66;5070355;28;20200;-56
2022/12/31 02:37:23;;;;;;;34.53;26.07;;;;;;;4.61;90.59;100657.84;5072601;28;20206;-56
2022/12/31 02:39:51;;;;;;;41.67;29.65;;;;;;;4.60;91.16;100658.63;5072197;28;20502;-56
2022/12/31 02:42:18;;;;;;;34.53;25.90;;;;;;;4.62;90.27;100652.84;5072783;28;20250;-56
2022/12/31 02:44:44;;;;;;;36.33;25.73;;;;;;;4.61;90.84;100655.31;5072306;28;20209;-56
2022/12/31 02:47:22;;;;;;;36.27;26.07;;;;;;;4.62;90.21;100655.38;5072348;28;20199;-56
2022/12/31 02:50:04;;;;;;;39.50;27.10;;;;;;;4.63;91.03;100659.69;5072367;28;20198;-56
2022/12/31 02:52:42;;;;;;;36.87;25.93;;;;;;;4.58;90.70;100655.13;5072958;28;20197;-56
2022/12/31 02:55:16;;;;;;;37.23;27.00;;;;;;;4.45;90.83;100632.31;5072828;28;20187;-56
2022/12/31 02:57:53;;;;;;;35.27;25.93;;;;;;;4.55;91.05;100663.47;5072595;28;20242;-56
2022/12/31 03:03:09;;;;;;;40.23;26.67;;;;;;;4.56;91.12;100677.06;5052583;28;20718;-56
2022/12/31 03:05:40;;;;;;;34.63;24.70;;;;;;;4.56;91.34;100679.63;5052924;28;20195;-56
2022/12/31 03:08:07;;;;;;;39.53;30.65;;;;;;;4.59;90.49;100678.09;5051918;28;20435;-56
2022/12/31 03:10:34;;;;;;;38.10;27.77;;;;;;;4.54;90.91;100661.69;5052063;28;20199;-56
2022/12/31 03:12:59;;;;;;;38.67;27.87;;;;;;;4.71;91.29;100680.50;5052098;28;20226;-56
2022/12/31 03:15:28;;;;;;;39.67;27.37;;;;;;;4.70;91.37;100684.72;5052013;28;20294;-56
2022/12/31 03:17:58;;;;;;;39.43;27.43;;;;;;;4.71;91.25;100681.38;5051787;28;20675;-56
2022/12/31 03:23:18;;;;;;;41.77;28.93;;;;;;;4.63;90.75;100682.59;5052155;28;20199;-56
2022/12/31 03:25:44;;;;;;;38.40;27.40;;;;;;;4.59;90.87;100685.75;5051776;28;20184;-56
2022/12/31 03:28:13;;;;;;;40.40;26.37;;;;;;;4.52;91.71;100680.22;5051943;28;20279;-56
2022/12/31 03:30:42;;;;;;;41.10;28.33;;;;;;;4.20;91.11;100640.16;5052578;28;20195;-56
2022/12/31 03:33:10;;;;;;;37.00;25.60;;;;;;;4.45;91.95;100691.69;5051739;28;20670;-56
2022/12/31 03:35:39;;;;;;;37.97;25.83;;;;;;;4.43;91.91;100698.34;5051807;28;20698;-56
2022/12/31 03:38:07;;;;;;;36.37;26.27;;;;;;;4.41;92.12;100705.03;5051995;28;20188;-56
2022/12/31 03:40:38;;;;;;;38.07;26.57;;;;;;;4.36;91.97;100700.44;5051809;28;20220;-56
2022/12/31 03:43:05;;;;;;;38.00;27.87;;;;;;;4.33;92.28;100700.25;5053467;28;20200;-56
2022/12/31 03:45:33;;;;;;;47.87;29.73;;;;;;;4.21;91.71;100699.50;5058530;28;20194;-56
2022/12/31 03:47:59;;;;;;;41.23;27.67;;;;;;;4.25;91.96;100698.94;5075896;28;20191;-55
2022/12/31 03:50:27;;;;;;;40.63;28.80;;;;;;;4.23;92.73;100701.34;5075838;28;20562;-55
2022/12/31 03:52:55;;;;;;;39.73;27.67;;;;;;;4.16;92.10;100701.78;5075691;28;20195;-55
2022/12/31 03:55:22;;;;;;;33.87;24.87;;;;;;;3.94;92.41;100674.19;5075637;28;20655;-55
2022/12/31 03:57:49;;;;;;;36.77;27.37;;;;;;;4.17;92.23;100703.56;5075622;28;20543;-55
2022/12/31 04:00:18;;;;;;;37.47;27.27;;;;;;;4.19;91.68;100686.72;5075344;28;20222;-55
2022/12/31 04:02:45;;;;;;;36.70;26.70;;;;;;;4.20;91.63;100692.69;5075449;28;20193;-56
2022/12/31 04:05:12;;;;;;;37.40;26.10;;;;;;;4.21;91.75;100687.69;5075547;28;20561;-56
2022/12/31 04:07:39;;;;;;;39.13;27.53;;;;;;;4.18;91.15;100688.38;5074720;28;20680;-56
2022/12/31 04:10:10;;;;;;;37.47;27.63;;;;;;;4.24;91.66;100692.06;5075138;28;20659;-56
2022/12/31 04:12:37;;;;;;;38.97;27.03;;;;;;;4.24;91.67;100689.53;5075140;28;20728;-56
2022/12/31 04:15:05;;;;;;;37.37;27.93;;;;;;;4.11;91.73;100667.56;5075046;28;20238;-56
2022/12/31 04:17:32;;;;;;;40.20;27.97;;;;;;;4.30;91.57;100702.63;5074999;28;20193;-56
2022/12/31 04:19:59;;;;;;;51.50;33.63;;;;;;;4.13;91.95;100710.13;5075120;28;20192;-56
2022/12/31 04:22:26;;;;;;;45.13;31.17;;;;;;;4.12;91.71;100705.81;5075105;28;20271;-56
2022/12/31 04:24:52;;;;;;;43.80;31.03;;;;;;;4.15;92.27;100702.56;5074932;28;20196;-56
2022/12/31 04:27:21;;;;;;;46.37;31.27;;;;;;;4.18;92.22;100710.38;5075708;28;20184;-56
2022/12/31 04:29:47;;;;;;;47.40;30.97;;;;;;;4.10;92.21;100704.84;5074902;28;20654;-56
2022/12/31 04:32:14;;;;;;;43.47;29.77;;;;;;;4.13;91.41;100705.03;5075392;28;20219;-55
2022/12/31 04:34:41;;;;;;;43.43;31.57;;;;;;;4.21;91.73;100704.59;5074487;28;20203;-56
2022/12/31 04:37:08;;;;;;;48.40;32.90;;;;;;;4.23;92.19;100701.34;5054875;28;20198;-56
2022/12/31 04:39:34;;;;;;;57.13;34.13;;;;;;;4.17;91.81;100709.50;5054627;28;20192;-56
2022/12/31 04:42:01;;;;;;;46.77;33.13;;;;;;;4.27;92.53;100703.31;5054816;28;20213;-56
2022/12/31 04:44:30;;;;;;;49.37;34.10;;;;;;;4.36;92.21;100706.41;5057584;28;20188;-56
2022/12/31 04:46:57;;;;;;;45.40;33.23;;;;;;;4.43;92.31;100711.06;5074683;28;20195;-56
2022/12/31 04:49:23;;;;;;;42.27;31.47;;;;;;;4.46;92.16;100707.84;5074682;28;20659;-56
2022/12/31 04:51:50;;;;;;;47.33;31.80;;;;;;;4.52;91.64;100715.84;5074383;28;20250;-56
2022/12/31 04:54:17;;;;;;;44.10;31.73;;;;;;;4.57;92.46;100710.22;5073764;28;20203;-56
2022/12/31 04:56:44;;;;;;;42.83;31.30;;;;;;;4.65;91.65;100705.59;5073932;28;20200;-56
2022/12/31 04:59:11;;;;;;;45.17;37.42;;;;;;;4.80;91.46;100710.72;5073274;28;20430;-56
2022/12/31 05:01:39;;;;;;;45.20;32.83;;;;;;;4.94;91.12;100712.38;5074251;28;20646;-56
2022/12/31 05:04:06;;;;;;;47.70;31.23;;;;;;;4.96;90.61;100714.22;5074350;28;20198;-56
2022/12/31 05:06:33;;;;;;;47.63;31.30;;;;;;;4.95;90.43;100720.09;5074357;28;20655;-56
2022/12/31 05:09:00;;;;;;;45.93;31.27;;;;;;;4.95;90.67;100717.56;5072424;28;20214;-57
2022/12/31 05:11:27;;;;;;;44.73;30.07;;;;;;;5.01;90.51;100717.03;5073804;28;20327;-56
2022/12/31 05:13:53;;;;;;;43.80;31.33;;;;;;;5.09;90.07;100720.91;5074504;28;20228;-56
2022/12/31 05:16:20;;;;;;;47.30;32.57;;;;;;;5.12;89.66;100721.06;5074096;28;20676;-56
2022/12/31 05:18:48;;;;;;;45.50;34.15;;;;;;;5.13;90.68;100731.38;5073785;28;20483;-57
2022/12/31 05:21:19;;;;;;;50.53;35.13;;;;;;;5.20;89.86;100732.56;5073745;28;20269;-56
2022/12/31 05:23:46;;;;;;;55.13;36.17;;;;;;;5.24;89.40;100743.06;5073919;28;20195;-56
2022/12/31 05:26:13;;;;;;;61.13;37.97;;;;;;;5.14;89.06;100734.78;5073828;28;20201;-55
2022/12/31 05:28:40;;;;;;;55.73;35.63;;;;;;;5.17;88.58;100745.13;5073850;28;20707;-56
2022/12/31 05:31:06;;;;;;;43.40;31.97;;;;;;;5.17;89.04;100751.13;5073847;28;20196;-55
2022/12/31 05:33:33;;;;;;;49.13;33.63;;;;;;;5.15;89.38;100745.06;5073769;28;20652;-55
2022/12/31 05:36:01;;;;;;;49.77;34.80;;;;;;;5.17;88.61;100750.22;5073562;28;20187;-55
2022/12/31 05:38:28;;;;;;;48.23;33.77;;;;;;;5.18;88.37;100752.00;5074193;28;20194;-55
2022/12/31 05:41:03;;;;;;;48.47;33.60;;;;;;;5.18;88.87;100757.09;5073521;28;20688;-55
2022/12/31 05:43:30;;;;;;;53.13;38.97;;;;;;;4.94;88.72;100735.31;5071165;28;20195;-54
2022/12/31 05:45:57;;;;;;;47.93;35.23;;;;;;;5.06;89.21;100762.34;5070929;28;20197;-55
2022/12/31 05:48:24;;;;;;;59.33;42.27;;;;;;;4.90;88.39;100748.63;5058601;28;20235;-58
2022/12/31 05:50:50;;;;;;;59.27;42.63;;;;;;;4.96;89.44;100765.16;5059827;28;20201;-55
2022/12/31 05:53:19;;;;;;;54.77;37.47;;;;;;;4.94;89.34;100770.97;5062053;28;20598;-56
2022/12/31 05:55:47;;;;;;;62.27;37.87;;;;;;;4.94;89.32;100771.84;5053542;28;20189;-56
2022/12/31 05:58:15;;;;;;;48.57;35.23;;;;;;;4.90;90.01;100769.91;5070212;28;20253;-55
2022/12/31 06:00:42;;;;;;;55.70;37.83;;;;;;;4.93;89.12;100774.28;5073299;28;20613;-56
2022/12/31 06:03:09;;;;;;;55.83;37.23;;;;;;;4.87;89.49;100777.34;5073431;28;20261;-56
2022/12/31 06:05:39;;;;;;;58.07;37.13;;;;;;;4.84;88.69;100777.16;5067837;28;20195;-56
2022/12/31 06:08:06;;;;;;;54.60;37.53;;;;;;;4.84;88.95;100778.81;5064878;28;20237;-56
2022/12/31 06:10:34;;;;;;;62.17;41.43;;;;;;;4.84;89.05;100779.72;5058411;28;20201;-56
2022/12/31 06:13:01;;;;;;;68.53;43.33;;;;;;;4.59;89.15;100776.47;5052840;28;20220;-55
2022/12/31 06:15:28;;;;;;;74.50;50.92;;;;;;;4.46;89.97;100748.53;5061097;28;20441;-56
2022/12/31 06:17:54;;;;;;;71.40;46.40;;;;;;;4.68;89.77;100788.13;5073676;28;20189;-55
2022/12/31 06:20:21;;;;;;;63.33;42.77;;;;;;;4.77;89.86;100790.34;5073015;28;20551;-55
2022/12/31 06:22:48;;;;;;;69.50;44.77;;;;;;;4.82;89.82;100777.88;5072752;28;20571;-56
2022/12/31 06:25:15;;;;;;;62.33;42.17;;;;;;;4.81;89.20;100788.84;5072836;28;20193;-55
2022/12/31 06:27:43;;;;;;;73.90;46.73;;;;;;;4.83;89.06;100785.63;5072768;28;20608;-55
2022/12/31 06:30:11;;;;;;;72.33;47.00;;;;;;;4.77;88.92;100782.69;5072302;28;20188;-55
2022/12/31 06:32:39;;;;;;;83.83;56.13;;;;;;;4.75;88.98;100791.91;5072656;28;20612;-55
2022/12/31 06:35:07;;;;;;;99.97;69.27;;;;;;;4.82;89.31;100803.31;5072479;28;20200;-56
2022/12/31 06:37:34;;;;;;;117.00;73.63;;;;;;;4.87;89.00;100799.38;5072403;28;20676;-56
2022/12/31 06:40:01;;;;;;;121.13;78.00;;;;;;;4.89;88.69;100805.47;5072475;28;20195;-56
2022/12/31 06:42:29;;;;;;;101.17;73.40;;;;;;;4.84;89.12;100781.38;5072124;28;20221;-57
2022/12/31 06:44:57;;;;;;;107.60;72.47;;;;;;;5.02;88.10;100808.81;5072521;28;20197;-56
2022/12/31 06:47:24;;;;;;;108.83;71.40;;;;;;;5.10;87.92;100812.69;5072462;28;20193;-56
2022/12/31 06:49:51;;;;;;;105.97;70.93;;;;;;;5.01;87.84;100789.22;5072559;28;20194;-56
2022/12/31 06:52:18;;;;;;;105.10;71.90;;;;;;;5.09;88.07;100818.56;5072198;28;20629;-56
2022/12/31 06:54:46;;;;;;;115.33;71.20;;;;;;;5.11;88.06;100823.78;5072285;28;20197;-56
2022/12/31 06:57:13;;;;;;;102.67;63.57;;;;;;;5.19;88.67;100820.00;5068436;28;20254;-56
2022/12/31 06:59:41;;;;;;;112.90;68.70;;;;;;;5.28;88.91;100818.84;5062971;28;20195;-56
2022/12/31 07:02:28;;;;;;;115.27;72.20;;;;;;;5.48;87.44;100827.66;5072337;28;20311;-56
2022/12/31 07:05:08;;;;;;;113.17;70.50;;;;;;;5.55;87.34;100821.25;5072119;28;20655;-55
2022/12/31 07:07:46;;;;;;;103.65;71.88;;;;;;;5.78;87.40;100820.88;5070959;28;20873;-56
2022/12/31 07:10:22;;;;;;;75.60;52.17;;;;;;;5.84;86.05;100811.91;5071867;28;20193;-56
2022/12/31 07:13:00;;;;;;;76.33;51.17;;;;;;;6.03;86.29;100823.16;5072289;28;20569;-56
2022/12/31 07:15:45;;;;;;;77.77;52.77;;;;;;;6.06;85.80;100826.75;5069012;28;20671;-56
2022/12/31 07:18:24;;;;;;;73.53;51.23;;;;;;;6.10;85.38;100821.00;5068349;28;20192;-56
2022/12/31 07:20:51;;;;;;;69.43;48.03;;;;;;;6.14;85.72;100832.28;5071695;28;20670;-56
2022/12/31 07:23:19;;;;;;;75.40;48.80;;;;;;;6.17;86.26;100823.13;5071974;28;20225;-56
2022/12/31 07:25:52;;;;;;;70.13;47.57;;;;;;;6.34;86.37;100832.59;5071901;28;20197;-57
2022/12/31 07:28:30;;;;;;;60.53;44.27;;;;;;;6.43;85.67;100838.16;5072014;28;20531;-56
2022/12/31 07:31:07;;;;;;;71.03;48.13;;;;;;;6.51;86.09;100836.91;5071993;28;20192;-55
2022/12/31 07:33:46;;;;;;;66.57;45.30;;;;;;;6.63;85.47;100839.22;5071641;28;20185;-59
2022/12/31 07:36:23;;;;;;;65.77;45.30;;;;;;;6.74;85.64;100844.91;5070791;28;20197;-56
2022/12/31 07:38:54;;;;;;;63.92;42.65;;;;;;;6.76;85.33;100844.19;5071666;28;20090;-55
2022/12/31 07:41:36;;;;;;;72.33;45.23;;;;;;;6.79;84.66;100848.56;5070483;28;20198;-56
2022/12/31 07:44:07;;;;;;;70.03;46.00;;;;;;;6.80;84.26;100846.13;5070444;28;20243;-55
2022/12/31 07:46:41;;;;;;;76.20;47.43;;;;;;;6.74;84.09;100848.34;5069213;28;20189;-56
2022/12/31 07:49:13;;;;;;;72.20;46.90;;;;;;;6.77;84.41;100850.19;5071213;28;20208;-57
2022/12/31 07:51:40;;;;;;;74.80;45.30;;;;;;;6.88;84.19;100854.19;5071261;28;20618;-56
2022/12/31 07:54:07;;;;;;;78.23;54.43;;;;;;;6.84;83.56;100854.81;5070933;28;20721;-56
2022/12/31 07:56:34;;;;;;;93.27;58.50;;;;;;;6.93;83.24;100862.94;5070981;28;20683;-55
2022/12/31 07:59:12;;;;;;;88.87;62.43;;;;;;;6.95;83.58;100856.28;5071574;28;20206;-56
2022/12/31 08:01:46;;;;;;;93.90;62.83;;;;;;;6.85;82.66;100859.13;5071655;28;20295;-55
2022/12/31 08:04:23;;;;;;;106.10;65.63;;;;;;;6.67;83.12;100828.41;5071358;28;20183;-55
2022/12/31 08:07:02;;;;;;;101.38;77.50;;;;;;;6.97;83.97;100862.31;5070840;28;20425;-55
2022/12/31 08:09:46;;;;;;;95.20;60.90;;;;;;;6.98;83.61;100852.19;5071272;28;20201;-55
2022/12/31 08:12:14;;;;;;;110.77;64.63;;;;;;;6.85;83.39;100831.91;5071324;28;20201;-55
2022/12/31 08:14:44;;;;;;;76.40;52.83;;;;;;;7.03;83.63;100860.09;5071358;28;20228;-56
2022/12/31 08:17:12;;;;;;;68.50;48.40;;;;;;;7.09;84.03;100861.28;5036385;28;20198;-57
2022/12/31 08:19:41;;;;;;;78.77;51.93;;;;;;;6.85;84.24;100820.81;5070153;28;20194;-57
2022/12/31 08:22:39;;;;;;;81.60;54.13;;;;;;;7.09;84.08;100868.06;5065059;28;20270;-58
2022/12/31 08:25:19;;;;;;;72.37;47.97;;;;;;;7.06;83.80;100865.34;5067703;28;20187;-58
2022/12/31 08:27:58;;;;;;;73.10;47.73;;;;;;;6.80;85.02;100870.78;5066738;28;20212;-58
2022/12/31 08:30:35;;;;;;;68.00;47.40;;;;;;;6.91;84.54;100872.22;5072563;28;20189;-57
2022/12/31 08:33:11;;;;;;;65.60;46.93;;;;;;;7.02;84.31;100871.09;5074505;28;20686;-57
2022/12/31 08:35:52;;;;;;;68.40;48.60;;;;;;;6.98;84.00;100874.28;5074199;28;20183;-55
2022/12/31 08:38:32;;;;;;;77.90;49.47;;;;;;;7.07;83.82;100872.22;5074333;28;20251;-57
2022/12/31 08:41:03;;;;;;;78.10;50.70;;;;;;;7.22;83.15;100877.25;5073639;28;20192;-55
2022/12/31 08:43:42;;;;;;;80.03;51.10;;;;;;;7.33;83.13;100871.00;5072997;28;20621;-56
2022/12/31 08:46:21;;;;;;;73.53;52.30;;;;;;;7.43;82.95;100886.91;5074124;28;20191;-55
2022/12/31 08:48:48;;;;;;;73.30;53.33;;;;;;;7.53;81.81;100871.19;5074746;28;20191;-56
2022/12/31 08:51:20;;;;;;;74.63;48.97;;;;;;;7.42;81.87;100882.56;5072353;28;20275;-55
2022/12/31 08:53:48;;;;;;;74.93;49.03;;;;;;;7.52;82.15;100864.34;5072499;28;20214;-56
2022/12/31 08:56:25;;;;;;;69.63;46.87;;;;;;;7.51;81.92;100852.34;5070531;28;20358;-56
2022/12/31 08:59:03;;;;;;;58.47;43.77;;;;;;;7.75;81.75;100862.06;5072652;28;20196;-57
2022/12/31 09:01:40;;;;;;;66.25;52.38;;;;;;;7.93;81.61;100857.81;5067291;28;20420;-57
2022/12/31 09:04:18;;;;;;;66.97;44.23;;;;;;;8.08;80.30;100846.63;5074379;28;20570;-57
2022/12/31 09:06:57;;;;;;;63.37;46.03;;;;;;;8.18;79.90;100850.53;5073959;28;20194;-56
2022/12/31 09:09:37;;;;;;;67.63;46.07;;;;;;;8.16;79.54;100841.88;5073931;28;20291;-57
2022/12/31 09:12:10;;;;;;;63.00;45.90;;;;;;;8.25;79.50;100843.19;5073711;28;20223;-56
2022/12/31 09:14:48;;;;;;;66.33;46.20;;;;;;;8.40;79.39;100842.19;5074167;28;20233;-57
2022/12/31 09:17:40;;;;;;;63.07;47.37;;;;;;;8.52;79.20;100841.06;5073943;28;20190;-57
2022/12/31 09:20:20;;;;;;;68.20;47.83;;;;;;;8.63;78.05;100837.28;5073756;28;20193;-56
2022/12/31 09:22:49;;;;;;;67.57;45.43;;;;;;;8.56;77.51;100814.78;5073758;28;20690;-57
2022/12/31 09:25:18;;;;;;;66.27;45.13;;;;;;;8.74;76.97;100828.41;5073463;28;20187;-56
2022/12/31 09:27:54;;;;;;;59.70;44.57;;;;;;;8.86;76.58;100828.97;5073526;28;20676;-57
2022/12/31 09:30:21;;;;;;;56.73;43.63;;;;;;;8.90;76.32;100822.25;5072651;28;20198;-56
2022/12/31 09:32:56;;;;;;;63.80;41.77;;;;;;;8.93;75.70;100821.56;5074060;28;20202;-57
2022/12/31 09:35:36;;;;;;;53.77;40.77;;;;;;;9.07;75.62;100817.88;5073595;28;20654;-56
2022/12/31 09:38:11;;;;;;;56.77;41.27;;;;;;;9.21;75.00;100824.47;5063830;28;20237;-57
2022/12/31 09:41:08;;;;;;;55.93;42.80;;;;;;;9.29;74.24;100808.59;5071772;28;20221;-57
2022/12/31 09:44:18;;;;;;;55.97;40.20;;;;;;;9.41;73.68;100798.88;5072819;28;20219;-57
2022/12/31 09:47:24;;;;;;;59.83;40.87;;;;;;;9.52;73.30;100794.19;5061555;28;20187;-56
2022/12/31 09:50:36;;;;;;;56.37;39.60;;;;;;;9.60;73.36;100795.38;5053524;28;20195;-57
2022/12/31 09:53:39;;;;;;;51.23;40.43;;;;;;;9.71;72.68;100782.97;5052434;28;20245;-56
2022/12/31 09:56:15;;;;;;;55.87;40.90;;;;;;;9.73;72.31;100784.78;5030859;28;20207;-56
2022/12/31 09:58:48;;;;;;;51.47;39.57;;;;;;;9.84;72.32;100782.63;5059717;28;20245;-57
2022/12/31 10:01:48;;;;;;;55.43;41.50;;;;;;;9.99;71.73;100773.84;5072599;28;20195;-57
2022/12/31 10:04:43;;;;;;;64.90;49.50;;;;;;;10.19;71.90;100778.91;5071299;28;20438;-57
2022/12/31 10:07:32;;;;;;;65.50;48.33;;;;;;;10.37;70.51;100772.78;5060880;28;20254;-57
2022/12/31 10:10:09;;;;;;;65.03;48.97;;;;;;;10.53;69.32;100771.63;5052357;28;20185;-57
2022/12/31 10:13:16;;;;;;;75.73;51.43;;;;;;;10.61;68.36;100775.34;5053113;28;20191;-57
2022/12/31 10:16:07;;;;;;;73.80;51.53;;;;;;;10.63;68.69;100763.44;5052569;28;20192;-57
2022/12/31 10:18:50;;;;;;;74.73;51.30;;;;;;;10.53;68.52;100725.38;5052350;28;20685;-57
2022/12/31 10:21:44;;;;;;;78.13;54.37;;;;;;;10.81;67.75;100745.22;5052411;28;20199;-57
2022/12/31 10:24:37;;;;;;;73.70;53.43;;;;;;;10.82;67.97;100750.44;5052219;28;20227;-57
2022/12/31 10:27:43;;;;;;;81.00;55.90;;;;;;;10.86;67.36;100752.28;5052248;28;20196;-56
2022/12/31 10:30:16;;;;;;;69.37;52.33;;;;;;;10.92;66.90;100744.78;5046177;28;20184;-57
2022/12/31 10:32:52;;;;;;;67.33;50.67;;;;;;;10.36;67.13;100642.56;5051798;28;20629;-57
2022/12/31 10:35:32;;;;;;;75.27;52.57;;;;;;;11.01;66.27;100732.25;5052061;28;20192;-57
2022/12/31 10:38:15;;;;;;;72.83;49.97;;;;;;;11.06;65.96;100743.56;5061143;28;20180;-56
2022/12/31 10:41:13;;;;;;;75.83;52.23;;;;;;;11.01;65.85;100727.13;5052148;28;20207;-56
2022/12/31 10:44:15;;;;;;;62.87;49.03;;;;;;;11.04;65.78;100718.63;5051963;28;20349;-58
2022/12/31 10:47:08;;;;;;;64.33;49.63;;;;;;;11.15;65.40;100718.13;5051684;28;20788;-58
2022/12/31 10:50:04;;;;;;;68.90;49.27;;;;;;;11.24;64.95;100727.88;5030669;28;20188;-56
2022/12/31 10:53:18;;;;;;;68.73;48.73;;;;;;;11.29;64.90;100723.75;5051389;28;20192;-57
2022/12/31 10:56:08;;;;;;;68.97;50.57;;;;;;;11.39;65.28;100720.66;5026006;28;20195;-56
2022/12/31 10:59:05;;;;;;;73.07;53.80;;;;;;;11.46;64.93;100721.72;5051868;28;20282;-56
2022/12/31 11:01:47;;;;;;;73.23;52.60;;;;;;;11.53;65.21;100708.25;5051817;28;20251;-56
2022/12/31 11:04:45;;;;;;;76.57;51.87;;;;;;;11.69;64.74;100716.53;5052054;28;20690;-57
2022/12/31 11:07:47;;;;;;;68.47;49.57;;;;;;;11.79;63.74;100700.53;5051903;28;20188;-55
2022/12/31 11:10:42;;;;;;;65.63;45.77;;;;;;;11.81;63.65;100700.59;5038197;28;20192;-57
2022/12/31 11:13:46;;;;;;;58.00;42.80;;;;;;;11.90;63.18;100698.25;5051550;28;20659;-57
2022/12/31 11:16:33;;;;;;;54.77;41.77;;;;;;;11.82;63.42;100684.28;5051997;28;20655;-57
2022/12/31 11:19:12;;;;;;;55.77;41.13;;;;;;;12.00;63.34;100684.84;5054553;28;20195;-58
2022/12/31 11:21:53;;;;;;;52.80;37.90;;;;;;;12.11;63.20;100691.19;5070118;28;20261;-58
2022/12/31 11:24:31;;;;;;;52.47;37.90;;;;;;;12.20;63.48;100690.56;5068227;28;20106;-57
2022/12/31 11:27:18;;;;;;;46.17;36.00;;;;;;;12.20;63.50;100686.28;5068599;28;20205;-57
2022/12/31 11:29:59;;;;;;;51.77;36.73;;;;;;;12.32;63.84;100672.88;5069743;28;20183;-58
2022/12/31 11:32:36;;;;;;;53.10;39.00;;;;;;;12.41;63.94;100676.56;5069304;28;20179;-58
2022/12/31 11:35:21;;;;;;;52.08;43.10;;;;;;;12.56;63.63;100680.41;5063948;28;20556;-58
2022/12/31 11:37:50;;;;;;;50.13;36.20;;;;;;;12.62;62.79;100673.72;5068028;28;20193;-58
2022/12/31 11:40:40;;;;;;;50.70;37.23;;;;;;;12.71;62.87;100670.50;5070895;28;20190;-58
2022/12/31 11:43:21;;;;;;;44.10;35.20;;;;;;;12.79;62.46;100669.00;5069984;28;20913;-58
2022/12/31 11:46:17;;;;;;;51.03;36.77;;;;;;;12.81;62.64;100670.78;5069971;28;20210;-58
2022/12/31 11:48:56;;;;;;;45.03;34.93;;;;;;;12.80;62.39;100660.44;5061743;28;20277;-58
2022/12/31 11:51:39;;;;;;;48.20;35.93;;;;;;;12.82;62.17;100672.53;5068334;28;20183;-57
2022/12/31 11:54:42;;;;;;;49.37;35.20;;;;;;;12.86;62.07;100669.19;5068778;28;20222;-57